地図

経路データ

SID SEASON NUMBER BASIN SUBBASIN NAME ISO_TIME NATURE LAT LON WMO_WIND WMO_PRES WMO_AGENCY TRACK_TYPE DIST2LAND LANDFALL IFLAG USA_AGENCY USA_ATCF_ID USA_LAT USA_LON USA_RECORD USA_STATUS USA_WIND USA_PRES USA_SSHS USA_R34_NE USA_R34_SE USA_R34_SW USA_R34_NW USA_R50_NE USA_R50_SE USA_R50_SW USA_R50_NW USA_R64_NE USA_R64_SE USA_R64_SW USA_R64_NW USA_POCI USA_ROCI USA_RMW USA_EYE TOKYO_LAT TOKYO_LON TOKYO_GRADE TOKYO_WIND TOKYO_PRES TOKYO_R50_DIR TOKYO_R50_LONG TOKYO_R50_SHORT TOKYO_R30_DIR TOKYO_R30_LONG TOKYO_R30_SHORT TOKYO_LAND CMA_LAT CMA_LON CMA_CAT CMA_WIND CMA_PRES HKO_LAT HKO_LON HKO_CAT HKO_WIND HKO_PRES NEWDELHI_LAT NEWDELHI_LON NEWDELHI_GRADE NEWDELHI_WIND NEWDELHI_PRES NEWDELHI_CI NEWDELHI_DP NEWDELHI_POCI REUNION_LAT REUNION_LON REUNION_TYPE REUNION_WIND REUNION_PRES REUNION_TNUM REUNION_CI REUNION_RMW REUNION_R34_NE REUNION_R34_SE REUNION_R34_SW REUNION_R34_NW REUNION_R50_NE REUNION_R50_SE REUNION_R50_SW REUNION_R50_NW REUNION_R64_NE REUNION_R64_SE REUNION_R64_SW REUNION_R64_NW BOM_LAT BOM_LON BOM_TYPE BOM_WIND BOM_PRES BOM_TNUM BOM_CI BOM_RMW BOM_R34_NE BOM_R34_SE BOM_R34_SW BOM_R34_NW BOM_R50_NE BOM_R50_SE BOM_R50_SW BOM_R50_NW BOM_R64_NE BOM_R64_SE BOM_R64_SW BOM_R64_NW BOM_ROCI BOM_POCI BOM_EYE BOM_POS_METHOD BOM_PRES_METHOD NADI_LAT NADI_LON NADI_CAT NADI_WIND NADI_PRES WELLINGTON_LAT WELLINGTON_LON WELLINGTON_WIND WELLINGTON_PRES DS824_LAT DS824_LON DS824_STAGE DS824_WIND DS824_PRES TD9636_LAT TD9636_LON TD9636_STAGE TD9636_WIND TD9636_PRES TD9635_LAT TD9635_LON TD9635_WIND TD9635_PRES TD9635_ROCI NEUMANN_LAT NEUMANN_LON NEUMANN_CLASS NEUMANN_WIND NEUMANN_PRES MLC_LAT MLC_LON MLC_CLASS MLC_WIND MLC_PRES USA_GUST BOM_GUST BOM_GUST_PER REUNION_GUST REUNION_GUST_PER USA_SEAHGT USA_SEARAD_NE USA_SEARAD_SE USA_SEARAD_SW USA_SEARAD_NW STORM_SPEED STORM_DIR
1881165N21089 1881 20 NI BB NOT_NAMED 1881-06-14 00:00:00 TS 21.0000 88.8000 main 67 67 _________O____ -1 21.0000 88.8000 TC 30 0 0
1881165N21089 1881 20 NI BB NOT_NAMED 1881-06-14 03:00:00 TS 21.0000 88.8000 main 67 67 _________PO___ -1 21.0000 88.8000 TC 30 21.0000 88.8000 1 0 0
1881165N21089 1881 20 NI BB NOT_NAMED 1881-06-14 06:00:00 TS 21.0082 88.7926 main 67 67 _________OP___ -1 21.0000 88.8000 TC 30 21.0204 88.7814 1 0 0
1881165N21089 1881 20 NI BB NOT_NAMED 1881-06-14 09:00:00 TS 21.0140 88.7873 main 67 67 _________PP___ -1 21.0000 88.8000 TC 30 21.0326 88.7703 1 0 0
1881165N21089 1881 20 NI BB NOT_NAMED 1881-06-14 12:00:00 TS 21.0143 88.7870 main 67 67 _________OP___ -1 21.0000 88.8000 TC 30 21.0285 88.7740 1 0 0
1881165N21089 1881 20 NI BB NOT_NAMED 1881-06-14 15:00:00 TS 21.0000 88.8000 main 67 67 _________PO___ -1 21.0000 88.8000 TC 30 21.0000 88.8000 1 1 137
1881165N21089 1881 20 NI BB NOT_NAMED 1881-06-14 18:00:00 TS 20.9735 88.8242 main 67 67 _________OP___ -1 21.0000 88.8000 TC 30 20.9470 88.8483 1 1 144
1881165N21089 1881 20 NI BB NOT_NAMED 1881-06-14 21:00:00 TS 20.9285 88.8670 main 78 78 _________PP___ -1 20.9549 88.8448 TC 30 20.9022 88.8891 1 0 0
1881165N21089 1881 20 NI BB NOT_NAMED 1881-06-15 00:00:00 TS 20.9531 88.8427 main 67 59 _________OP___ -1 21.0000 88.8000 TC 30 20.9062 88.8854 1 3 317
1881165N21089 1881 20 NI BB NOT_NAMED 1881-06-15 03:00:00 TS 21.1238 88.6726 main 59 22 _________PO___ -1 21.2476 88.5452 TC 30 21.0000 88.8000 1 6 316
1881165N21089 1881 20 NI BB NOT_NAMED 1881-06-15 06:00:00 TS 21.4121 88.3734 main 22 0 _________OP___ -1 21.6000 88.2000 TC 30 21.2241 88.5469 1 9 316
1881165N21089 1881 20 NI BB NOT_NAMED 1881-06-15 09:00:00 TS 21.7368 88.0398 main 15 0 _________PP___ -1 21.9351 87.8627 TC 30 21.5385 88.2169 1 9 320
1881165N21089 1881 20 NI BB NOT_NAMED 1881-06-15 12:00:00 TS 22.1043 87.7392 main 0 0 _________OP___ -1 22.3000 87.6000 TC 30 21.9086 87.8783 1 9 330
1881165N21089 1881 20 NI BB NOT_NAMED 1881-06-15 15:00:00 TS 22.5000 87.5561 main 0 0 _________PO___ -1 22.6999 87.5122 TC 30 22.3000 87.6000 1 8 344
1881165N21089 1881 20 NI BB NOT_NAMED 1881-06-15 18:00:00 TS 22.9106 87.4847 main 0 0 _________OP___ -1 23.1000 87.5000 TC 30 22.7212 87.4693 1 8 352
1881165N21089 1881 20 NI BB NOT_NAMED 1881-06-15 21:00:00 TS 23.3285 87.4258 main 0 0 _________PP___ -1 23.5100 87.4425 TC 30 23.1471 87.4091 1 8 354
1881165N21089 1881 20 NI BB NOT_NAMED 1881-06-16 00:00:00 TS 23.6622 87.3972 main 0 0 _________OP___ -1 23.8000 87.4000 TC 30 23.5245 87.3944 1 5 0
1881165N21089 1881 20 NI BB NOT_NAMED 1881-06-16 03:00:00 TS 23.8262 87.3962 main 0 0 _________PO___ -1 23.8525 87.3925 TC 30 23.8000 87.4000 1 2 0
1881165N21089 1881 20 NI BB NOT_NAMED 1881-06-16 06:00:00 TS 23.8539 87.3927 main 0 0 _________OP___ -1 23.8000 87.4000 TC 30 23.9078 87.3855 1 0 319
1881165N21089 1881 20 NI BB NOT_NAMED 1881-06-16 09:00:00 TS 23.8562 87.3924 main 0 0 _________PP___ -1 23.8000 87.4000 TC 30 23.9125 87.3848 1 0 0
1881165N21089 1881 20 NI BB NOT_NAMED 1881-06-16 12:00:00 TS 23.8305 87.3959 main 0 0 _________OP___ -1 23.8000 87.4000 TC 30 23.8609 87.3918 1 1 0
1881165N21089 1881 20 NI BB NOT_NAMED 1881-06-16 15:00:00 TS 23.8000 87.4000 main 0 0 _________PO___ -1 23.8000 87.4000 TC 30 23.8000 87.4000 1 1 199
1881165N21089 1881 20 NI BB NOT_NAMED 1881-06-16 18:00:00 TS 23.7776 87.3920 main 0 0 _________OP___ -1 23.8000 87.4000 TC 30 23.7553 87.3839 1 1 0
1881165N21089 1881 20 NI BB NOT_NAMED 1881-06-16 21:00:00 TS 23.7437 87.3814 main 0 0 _________PP___ -1 23.7700 87.3925 TC 30 23.7175 87.3703 1 0 0
1881165N21089 1881 20 NI BB NOT_NAMED 1881-06-17 00:00:00 TS 23.7604 87.3858 main 0 0 _________OP___ -1 23.8000 87.4000 TC 30 23.7209 87.3715 1 1 18
1881165N21089 1881 20 NI BB NOT_NAMED 1881-06-17 03:00:00 TS 23.8737 87.4138 main 0 0 _________PO___ -1 23.9475 87.4276 TC 30 23.8000 87.4000 1 4 15
1881165N21089 1881 20 NI BB NOT_NAMED 1881-06-17 06:00:00 TS 24.0980 87.4835 main 0 0 _________OP___ -1 24.2000 87.5000 TC 30 23.9960 87.4670 1 6 18
1881165N21089 1881 20 NI BB NOT_NAMED 1881-06-17 09:00:00 TS 24.4013 87.6023 main 0 0 _________PP___ -1 24.5350 87.6423 TC 30 24.2675 87.5623 1 7 20
1881165N21089 1881 20 NI BB NOT_NAMED 1881-06-17 12:00:00 TS 24.7402 87.7382 main 0 0 _________OP___ -1 24.9000 87.8000 TC 30 24.5803 87.6764 1 7 19
1881165N21089 1881 20 NI BB NOT_NAMED 1881-06-17 15:00:00 TS 25.0575 87.8501 main 0 0 _________PO___ -1 25.2150 87.9002 TC 30 24.9000 87.8000 1 6 19
1881165N21089 1881 20 NI BB NOT_NAMED 1881-06-17 18:00:00 TS 25.3280 87.9571 main 0 0 _________OP___ -1 25.5000 88.0000 TC 30 25.1991 87.9249 1 6 22
1881165N21089 1881 20 NI BB NOT_NAMED 1881-06-17 21:00:00 TS 25.5895 88.0848 main 0 0 _________PP___ -1 25.7576 88.1373 TC 30 25.4775 88.0498 1 6 25
1881165N21089 1881 20 NI BB NOT_NAMED 1881-06-18 00:00:00 TS 25.8282 88.2165 main 0 0 _________OP___ -1 26.0000 88.3000 TC 30 25.7422 88.1748 1 5 25
1881165N21089 1881 20 NI BB NOT_NAMED 1881-06-18 03:00:00 NR 26.0000 88.3000 main 0 __________O___ -1 TC 26.0000 88.3000 1 4 25

IBTrACS Databaseについて

本データベースは、米国NOAAが公開する1842年以降の世界の熱帯低気圧のベストトラックデータアーカイブInternational Best Track Archive for Climate Stewardship (IBTrACS)を、ウェブで閲覧しやすい形式に変換したものです。

最終更新日:2021-10-21